Putnam Township, Michigan
Current Conditions -  °F | °C
As of 11:14 AM on Sunday 25 Jan 2015 (Local Time) from KOZW Reporting Station
Overcast Overcast  
Wind Chill: 11°   Ceiling: 4400
Heat Index: 23°   Visibility: 10mi
Dew Point: 15°   Wind: 13mph
Humidity: 72%   Direction: 50°NE
Pressure: 29.89"   Gusts: NA
Location:  42.4646°N, 83.948°W
Report Text: KOZW 251614Z AUTO 05011KT 10SM SCT021 OVC044 M05/M09 A2989 RMK AO2 T10501094
Loading
Personal Weather Stations






























Interactive Weather Map New forecast layout! Learn more

10-Day Weather Forecast

Advertisements
Track Severe Weather on mobile